createdAt,value
2022-12-08T00:02:18.998Z,6.40
2022-12-08T00:07:40.318Z,3.73
2022-12-08T00:12:43.054Z,5.50
2022-12-08T00:17:45.785Z,3.63
2022-12-08T00:22:48.508Z,3.80
2022-12-08T00:27:51.332Z,3.80
2022-12-08T00:32:54.082Z,3.43
2022-12-08T00:38:00.804Z,3.78
2022-12-08T00:43:03.915Z,3.42
2022-12-08T00:48:07.624Z,4.80
2022-12-08T00:53:10.575Z,7.78
2022-12-08T00:58:13.437Z,4.03
2022-12-08T01:03:16.316Z,3.88
2022-12-08T01:08:19.135Z,3.63
2022-12-08T01:13:21.922Z,3.55
2022-12-08T01:18:24.780Z,2.17
2022-12-08T01:23:28.456Z,3.77
2022-12-08T01:28:32.047Z,2.85
2022-12-08T01:33:34.734Z,4.93
2022-12-08T01:38:37.362Z,5.00
2022-12-08T01:44:00.217Z,3.67
2022-12-08T01:49:07.485Z,3.23
2022-12-08T01:54:11.334Z,2.92
2022-12-08T01:59:14.355Z,2.83
2022-12-08T02:04:17.105Z,4.35
2022-12-08T02:09:21.807Z,2.53
2022-12-08T02:14:25.623Z,4.37
2022-12-08T02:19:51.414Z,3.85
2022-12-08T02:25:27.646Z,2.85
2022-12-08T02:30:56.034Z,4.35
2022-12-08T02:36:12.306Z,5.55
2022-12-08T02:41:39.334Z,3.33
2022-12-08T02:46:52.572Z,4.47
2022-12-08T02:52:05.799Z,4.30
2022-12-08T02:57:27.313Z,2.92
2022-12-08T03:02:48.102Z,3.30
2022-12-08T03:08:02.569Z,5.13
2022-12-08T03:13:09.978Z,4.97
2022-12-08T03:18:16.473Z,5.72
2022-12-08T03:23:20.421Z,5.55
2022-12-08T03:28:23.184Z,3.83
2022-12-08T03:33:31.355Z,5.43
2022-12-08T03:38:43.044Z,4.68
2022-12-08T03:43:59.749Z,2.85
2022-12-08T03:49:02.967Z,2.53
2022-12-08T03:54:05.705Z,7.63
2022-12-08T03:59:08.915Z,5.17
2022-12-08T04:04:12.206Z,4.30
2022-12-08T04:09:15.069Z,3.45
2022-12-08T04:14:17.730Z,2.45
2022-12-08T04:19:20.382Z,4.32
2022-12-08T04:24:23.385Z,5.47
2022-12-08T04:29:26.067Z,5.68
2022-12-08T04:34:29.077Z,4.95
2022-12-08T04:39:31.768Z,4.90
2022-12-08T04:44:34.996Z,4.70
2022-12-08T04:49:37.722Z,4.40
2022-12-08T04:54:40.464Z,2.78
2022-12-08T04:59:43.147Z,4.85
2022-12-08T05:04:45.874Z,3.80
2022-12-08T05:09:48.498Z,6.00
2022-12-08T05:14:51.169Z,6.20
2022-12-08T05:19:53.922Z,4.90
2022-12-08T05:24:56.780Z,5.20
2022-12-08T05:29:59.731Z,10.10
2022-12-08T05:35:02.407Z,6.20
2022-12-08T05:40:06.275Z,6.30
2022-12-08T05:45:09.987Z,5.57
2022-12-08T05:50:12.704Z,6.35
2022-12-08T05:55:15.579Z,4.50
2022-12-08T06:00:18.721Z,4.45
2022-12-08T06:05:21.427Z,5.43
2022-12-08T06:10:24.131Z,6.55
2022-12-08T06:15:27.500Z,3.13
2022-12-08T06:20:30.315Z,5.13
2022-12-08T06:25:32.998Z,4.22
2022-12-08T06:30:35.792Z,4.93
2022-12-08T06:35:38.588Z,5.15
2022-12-08T06:40:41.608Z,13.52
2022-12-08T06:45:44.367Z,3.70
2022-12-08T06:50:47.301Z,5.57
2022-12-08T06:56:01.306Z,9.57
2022-12-08T07:01:08.451Z,6.82
2022-12-08T07:06:24.139Z,6.53
2022-12-08T07:11:27.324Z,8.00
2022-12-08T07:16:30.203Z,5.70
2022-12-08T07:21:32.930Z,6.57
2022-12-08T07:26:35.983Z,5.07
2022-12-08T07:31:38.934Z,6.30
2022-12-08T07:36:41.824Z,7.18
2022-12-08T07:41:44.516Z,6.00
2022-12-08T07:46:47.555Z,8.23
2022-12-08T07:51:50.501Z,9.07
2022-12-08T07:56:53.244Z,6.70
2022-12-08T08:02:19.523Z,8.27
2022-12-08T08:07:18.894Z,7.70
2022-12-08T08:12:31.464Z,8.37
2022-12-08T08:17:37.283Z,6.95
2022-12-08T08:22:40.326Z,7.28
2022-12-08T08:27:43.526Z,6.45
2022-12-08T08:32:46.264Z,7.75
2022-12-08T08:37:49.644Z,7.03
2022-12-08T08:42:52.505Z,5.75
2022-12-08T08:47:55.165Z,7.68
2022-12-08T08:52:58.314Z,8.77
2022-12-08T08:58:01.023Z,6.53
2022-12-08T09:03:04.034Z,5.67
2022-12-08T09:08:07.828Z,4.93
2022-12-08T09:13:11.375Z,7.97
2022-12-08T09:18:14.096Z,8.35
2022-12-08T09:23:16.780Z,5.95
2022-12-08T09:28:19.595Z,4.80
2022-12-08T09:33:22.409Z,6.10
2022-12-08T09:38:25.100Z,5.65
2022-12-08T09:43:55.107Z,5.35
2022-12-08T09:49:00.170Z,9.00
2022-12-08T09:54:14.857Z,4.80
2022-12-08T09:59:22.630Z,4.95
2022-12-08T10:04:32.663Z,5.60
2022-12-08T10:09:48.292Z,5.90
2022-12-08T10:15:09.323Z,4.97
2022-12-08T10:20:18.406Z,8.00
2022-12-08T10:25:30.886Z,8.43
2022-12-08T10:30:34.063Z,11.35
2022-12-08T10:36:05.036Z,8.77
2022-12-08T10:41:10.561Z,7.45
2022-12-08T10:46:22.803Z,7.07
2022-12-08T10:51:31.380Z,6.97
2022-12-08T10:56:34.550Z,8.32
2022-12-08T11:01:40.448Z,8.10
2022-12-08T11:06:44.259Z,8.38
2022-12-08T11:11:54.537Z,9.77
2022-12-08T11:17:17.876Z,7.28
2022-12-08T11:22:27.505Z,7.65
2022-12-08T11:27:32.869Z,7.70
2022-12-08T11:32:36.688Z,8.77
2022-12-08T11:37:44.568Z,8.90
2022-12-08T11:43:07.586Z,9.32
2022-12-08T11:48:19.816Z,8.00
2022-12-08T11:53:56.617Z,9.70
2022-12-08T11:59:10.804Z,7.32
2022-12-08T12:04:34.247Z,11.07
2022-12-08T12:10:00.776Z,8.70
2022-12-08T12:15:21.748Z,10.00
2022-12-08T12:20:36.327Z,12.52
2022-12-08T12:26:02.632Z,7.63
2022-12-08T12:31:16.217Z,13.03
2022-12-08T12:36:19.218Z,9.35
2022-12-08T12:41:29.736Z,8.18
2022-12-08T12:46:53.512Z,10.77
2022-12-08T12:51:56.398Z,10.57
2022-12-08T12:57:05.250Z,15.03
2022-12-08T13:02:17.213Z,12.15
2022-12-08T13:07:36.059Z,16.20
2022-12-08T13:12:38.736Z,12.05
2022-12-08T13:17:46.134Z,16.60
2022-12-08T13:22:49.159Z,12.07
2022-12-08T13:27:55.648Z,10.73
2022-12-08T13:33:18.069Z,11.95
2022-12-08T13:38:25.791Z,12.40
2022-12-08T13:51:16.142Z,14.53
2022-12-08T14:00:29.257Z,18.95
2022-12-08T14:06:11.051Z,17.23
2022-12-08T14:11:06.949Z,15.98
2022-12-08T14:16:28.990Z,13.77
2022-12-08T14:21:36.229Z,17.33
2022-12-08T14:26:39.583Z,15.50
2022-12-08T14:31:42.390Z,16.35
2022-12-08T14:36:45.320Z,13.88
2022-12-08T14:42:01.390Z,16.80
2022-12-08T14:47:11.279Z,13.77
2022-12-08T14:52:14.869Z,17.20
2022-12-08T14:57:18.149Z,17.05
2022-12-08T15:02:24.435Z,21.05
2022-12-08T15:07:30.441Z,17.53
2022-12-08T15:12:33.761Z,17.88
2022-12-08T15:17:46.359Z,23.23
2022-12-08T15:22:49.162Z,21.27
2022-12-08T15:27:53.567Z,20.85
2022-12-08T15:32:56.600Z,33.40
2022-12-08T15:37:59.339Z,49.65
2022-12-08T15:43:02.071Z,47.60
2022-12-08T15:48:05.517Z,30.33
2022-12-08T15:53:12.649Z,40.05
2022-12-08T15:58:53.032Z,34.03
2022-12-08T16:09:17.873Z,28.85
2022-12-08T16:15:23.354Z,20.88
2022-12-08T16:19:45.010Z,28.85
2022-12-08T16:24:48.020Z,28.97
2022-12-08T16:29:51.645Z,63.50
2022-12-08T16:34:55.053Z,27.25
2022-12-08T16:39:58.624Z,22.83
2022-12-08T16:45:05.411Z,27.25
2022-12-08T16:50:17.398Z,23.00
2022-12-08T16:55:20.556Z,24.20
2022-12-08T17:00:28.178Z,18.73
2022-12-08T17:05:31.345Z,26.27
2022-12-08T17:10:39.560Z,25.65
2022-12-08T17:15:42.326Z,24.97
2022-12-08T17:20:45.038Z,22.95
2022-12-08T17:25:59.088Z,28.17
2022-12-08T17:31:03.369Z,28.23
2022-12-08T17:36:11.849Z,29.10
2022-12-08T17:41:14.620Z,27.90
2022-12-08T17:46:18.869Z,32.83
2022-12-08T17:51:21.842Z,34.33
2022-12-08T17:56:24.680Z,30.40
2022-12-08T18:01:28.007Z,35.55
2022-12-08T18:06:31.698Z,29.60
2022-12-08T18:11:35.756Z,31.15
2022-12-08T18:16:44.402Z,25.35
2022-12-08T18:21:47.234Z,26.67
2022-12-08T18:26:52.914Z,23.58
2022-12-08T18:31:55.709Z,20.50
2022-12-08T18:36:58.975Z,21.88
2022-12-08T18:42:23.044Z,15.88
2022-12-08T18:47:26.021Z,11.13
2022-12-08T18:52:32.317Z,14.02
2022-12-08T18:57:38.780Z,13.90
2022-12-08T19:02:42.160Z,14.55
2022-12-08T19:07:45.964Z,10.10
2022-12-08T19:12:53.111Z,12.88
2022-12-08T19:17:55.930Z,13.65
2022-12-08T19:22:58.769Z,10.03
2022-12-08T19:28:01.619Z,12.55
2022-12-08T19:33:04.529Z,12.57
2022-12-08T19:38:07.439Z,12.25
2022-12-08T19:43:47.310Z,12.85
2022-12-08T19:48:50.425Z,14.37
2022-12-08T19:53:53.319Z,11.90
2022-12-08T19:58:56.149Z,11.18
2022-12-08T20:03:58.990Z,13.02
2022-12-08T20:09:01.773Z,12.35
2022-12-08T20:14:05.090Z,12.63
2022-12-08T20:19:08.142Z,18.13
2022-12-08T20:24:11.275Z,12.63
2022-12-08T20:29:17.155Z,13.32
2022-12-08T20:34:20.225Z,16.08
2022-12-08T20:39:23.227Z,15.23
2022-12-08T20:44:29.253Z,10.77
2022-12-08T20:49:34.732Z,12.70
2022-12-08T20:54:39.499Z,19.73
2022-12-08T20:59:44.124Z,18.58
2022-12-08T21:04:47.009Z,12.47
2022-12-08T21:09:50.543Z,17.17
2022-12-08T21:14:53.409Z,16.08
2022-12-08T21:19:56.594Z,18.50
2022-12-08T21:24:59.433Z,36.20
2022-12-08T21:30:02.464Z,43.50
2022-12-08T21:35:06.715Z,29.45
2022-12-08T21:40:10.252Z,36.03
2022-12-08T21:45:16.439Z,38.17
2022-12-08T21:50:19.656Z,34.35
2022-12-08T21:55:24.171Z,36.17
2022-12-08T22:00:27.072Z,35.28
2022-12-08T22:05:30.217Z,31.45
2022-12-08T22:10:33.247Z,30.55
2022-12-08T22:15:36.367Z,23.20
2022-12-08T22:20:43.895Z,32.77
2022-12-08T22:25:57.239Z,26.98
2022-12-08T22:31:00.196Z,24.20
2022-12-08T22:36:10.067Z,27.58
2022-12-08T22:41:14.350Z,22.35
2022-12-08T22:46:23.396Z,20.27
2022-12-08T22:51:26.341Z,23.10
2022-12-08T22:56:29.050Z,18.48
2022-12-08T23:01:33.206Z,36.13
2022-12-08T23:06:36.269Z,25.33
2022-12-08T23:11:39.794Z,23.83
2022-12-08T23:16:42.539Z,31.25
2022-12-08T23:21:45.485Z,26.95
2022-12-08T23:26:48.392Z,19.15
2022-12-08T23:31:51.246Z,20.38
2022-12-08T23:36:54.013Z,18.60
2022-12-08T23:41:56.842Z,21.70
2022-12-08T23:46:59.588Z,17.10
2022-12-08T23:52:02.418Z,17.42
2022-12-08T23:57:05.395Z,20.60
